Time;durP1;ratioP1;P1;durP2;ratioP2;P2;SDS_P1;SDS_P2;PMS_P1;PMS_P2;Temp;Humidity;BMP_temperature;BMP_pressure;BME280_temperature;BME280_humidity;BME280_pressure;Samples;Min_cycle;Max_cycle;Signal;HPM_P1;HPM_P2
2022/08/26 00:00:51;;;;;;;5.72;4.00;;;23.40;58.60;;;;;;949777;145;27414;-77
2022/08/26 00:03:18;;;;;;;4.12;3.67;;;23.40;58.80;;;;;;951290;146;27355;-77
2022/08/26 00:05:45;;;;;;;4.20;3.80;;;23.40;58.90;;;;;;948818;145;27421;-77
2022/08/26 00:08:11;;;;;;;5.28;3.42;;;23.40;59.00;;;;;;951810;145;27256;-77
2022/08/26 00:10:38;;;;;;;4.00;3.70;;;23.40;58.90;;;;;;950818;146;27347;-77
2022/08/26 00:13:04;;;;;;;5.17;3.92;;;23.40;59.00;;;;;;952199;146;27824;-77
2022/08/26 00:15:31;;;;;;;3.65;3.35;;;23.40;59.00;;;;;;952826;145;27312;-77
2022/08/26 00:17:58;;;;;;;3.77;3.47;;;23.40;59.00;;;;;;950747;146;27417;-77
2022/08/26 00:20:24;;;;;;;3.80;3.50;;;23.40;59.10;;;;;;953009;145;27327;-77
2022/08/26 00:22:51;;;;;;;4.17;3.77;;;23.40;59.20;;;;;;952977;145;27299;-77
2022/08/26 00:25:17;;;;;;;3.90;3.58;;;23.40;59.30;;;;;;951906;145;27301;-77
2022/08/26 00:27:44;;;;;;;5.83;4.00;;;23.40;59.50;;;;;;949443;146;27746;-77
2022/08/26 00:30:13;;;;;;;3.95;3.52;;;23.40;59.60;;;;;;953679;149;27366;-77
2022/08/26 00:32:40;;;;;;;4.42;4.12;;;23.40;59.70;;;;;;952429;149;27344;-77
2022/08/26 00:35:06;;;;;;;4.08;3.77;;;23.50;59.70;;;;;;952270;149;27387;-77
2022/08/26 00:37:33;;;;;;;5.25;4.45;;;23.50;59.70;;;;;;952938;147;27224;-77
2022/08/26 00:39:59;;;;;;;4.40;3.60;;;23.50;60.40;;;;;;952120;149;27346;-77
2022/08/26 00:42:26;;;;;;;4.35;3.95;;;23.50;59.70;;;;;;952711;149;27772;-77
2022/08/26 00:44:53;;;;;;;5.80;4.72;;;23.60;59.80;;;;;;952177;149;28930;-77
2022/08/26 00:47:22;;;;;;;4.37;4.00;;;23.60;59.90;;;;;;952261;149;27232;-77
2022/08/26 00:49:50;;;;;;;4.47;4.08;;;23.60;59.90;;;;;;949583;149;27247;-77
2022/08/26 00:52:15;;;;;;;4.60;4.12;;;23.60;59.90;;;;;;952869;149;27205;-77
2022/08/26 00:54:45;;;;;;;10.43;4.87;;;23.60;59.90;;;;;;951397;149;27331;-77
2022/08/26 00:57:08;;;;;;;4.37;3.98;;;23.60;60.00;;;;;;950502;149;27307;-77
2022/08/26 00:59:35;;;;;;;4.20;3.80;;;23.60;60.00;;;;;;951397;149;27332;-77
2022/08/26 01:02:02;;;;;;;4.05;3.75;;;23.60;60.10;;;;;;950450;149;27316;-77
2022/08/26 01:04:28;;;;;;;4.08;3.67;;;23.60;60.20;;;;;;950581;149;27381;-77
2022/08/26 01:06:56;;;;;;;4.28;3.87;;;23.60;60.30;;;;;;952489;149;27446;-77
2022/08/26 01:09:22;;;;;;;4.33;3.80;;;23.50;60.10;;;;;;953977;149;27862;-77
2022/08/26 01:11:48;;;;;;;4.25;3.85;;;23.50;60.20;;;;;;952992;149;27258;-77
2022/08/26 01:14:15;;;;;;;3.98;3.67;;;23.40;60.20;;;;;;954237;149;27312;-77
2022/08/26 01:16:41;;;;;;;6.72;4.33;;;23.40;60.30;;;;;;953132;149;27352;-77
2022/08/26 01:19:26;;;;;;;4.25;3.95;;;23.40;60.50;;;;;;952194;149;27434;-77
2022/08/26 01:21:58;;;;;;;7.80;3.65;;;23.30;60.80;;;;;;947327;149;27344;-77
2022/08/26 01:24:26;;;;;;;4.67;4.28;;;23.20;60.70;;;;;;950039;149;27381;-77
2022/08/26 01:26:51;;;;;;;4.42;3.92;;;23.20;60.80;;;;;;950517;149;27301;-77
2022/08/26 01:29:18;;;;;;;4.00;3.55;;;23.10;61.00;;;;;;955902;148;27322;-77
2022/08/26 01:31:44;;;;;;;4.40;4.00;;;23.10;61.20;;;;;;956281;149;27359;-77
2022/08/26 01:34:17;;;;;;;4.40;4.00;;;23.10;61.30;;;;;;955187;149;27631;-77
2022/08/26 01:36:43;;;;;;;4.60;4.20;;;23.00;61.30;;;;;;956376;149;27331;-77
2022/08/26 01:39:10;;;;;;;4.60;4.12;;;23.00;61.30;;;;;;952669;149;27300;-77
2022/08/26 01:41:37;;;;;;;4.15;3.85;;;23.00;61.40;;;;;;955513;148;27339;-77
2022/08/26 01:44:03;;;;;;;4.17;3.87;;;22.90;61.60;;;;;;956470;149;27291;-77
2022/08/26 01:46:30;;;;;;;5.22;4.15;;;22.90;61.70;;;;;;957782;149;27354;-77
2022/08/26 01:48:57;;;;;;;4.92;4.53;;;22.80;61.80;;;;;;954119;149;27269;-77
2022/08/26 01:51:23;;;;;;;5.03;4.62;;;22.80;62.00;;;;;;953683;149;27270;-77
2022/08/26 01:53:50;;;;;;;5.80;4.47;;;22.80;62.20;;;;;;955096;146;27652;-77
2022/08/26 01:56:16;;;;;;;4.58;4.17;;;22.70;62.20;;;;;;956057;149;27287;-77
2022/08/26 01:58:43;;;;;;;4.47;4.08;;;22.70;62.70;;;;;;955203;146;27322;-77
2022/08/26 02:01:09;;;;;;;4.85;4.35;;;22.70;62.40;;;;;;952040;146;27345;-77
2022/08/26 02:03:36;;;;;;;5.03;4.45;;;22.60;62.50;;;;;;954277;149;27404;-77
2022/08/26 02:06:03;;;;;;;3.87;3.60;;;22.60;62.80;;;;;;955099;149;27316;-77
2022/08/26 02:08:41;;;;;;;4.83;4.42;;;22.60;63.00;;;;;;957841;146;27472;-77
2022/08/26 02:11:08;;;;;;;4.72;4.28;;;22.60;63.10;;;;;;953535;149;27352;-77
2022/08/26 02:13:34;;;;;;;5.15;4.65;;;22.50;63.00;;;;;;955737;149;27424;-77
2022/08/26 02:16:02;;;;;;;4.33;3.95;;;22.50;63.60;;;;;;954479;149;27428;-77
2022/08/26 02:18:28;;;;;;;4.60;4.20;;;22.50;63.30;;;;;;952803;149;27231;-77
2022/08/26 02:20:54;;;;;;;4.40;4.00;;;22.50;63.50;;;;;;955279;149;27395;-77
2022/08/26 02:23:21;;;;;;;4.78;4.37;;;22.50;63.60;;;;;;952598;149;27367;-77
2022/08/26 02:25:50;;;;;;;5.12;4.72;;;22.50;63.80;;;;;;956303;149;27334;-77
2022/08/26 02:28:16;;;;;;;4.53;4.12;;;22.40;63.90;;;;;;954650;149;27314;-77
2022/08/26 02:30:43;;;;;;;4.75;4.35;;;22.40;64.00;;;;;;951678;145;27350;-77
2022/08/26 02:33:10;;;;;;;4.47;4.08;;;22.40;65.20;;;;;;949750;145;27357;-77
2022/08/26 02:35:36;;;;;;;4.15;3.85;;;22.40;64.30;;;;;;950326;145;27328;-77
2022/08/26 02:38:04;;;;;;;5.08;4.58;;;22.40;64.40;;;;;;951518;145;27406;-77
2022/08/26 02:40:29;;;;;;;4.35;3.95;;;22.40;64.60;;;;;;951562;145;27355;-77
2022/08/26 02:42:56;;;;;;;4.95;4.53;;;22.40;64.60;;;;;;950064;145;27420;-77
2022/08/26 02:45:23;;;;;;;4.85;4.45;;;22.40;64.70;;;;;;951795;145;27292;-77
2022/08/26 02:47:49;;;;;;;4.72;4.33;;;22.40;64.90;;;;;;950313;145;27301;-77
2022/08/26 02:50:16;;;;;;;4.60;4.20;;;22.40;65.00;;;;;;951706;146;27328;-77
2022/08/26 02:52:42;;;;;;;5.22;4.72;;;22.50;65.20;;;;;;952819;145;27394;-77
2022/08/26 02:55:09;;;;;;;5.53;5.03;;;22.50;65.30;;;;;;952502;145;27247;-77
2022/08/26 02:57:36;;;;;;;5.08;4.67;;;22.50;65.20;;;;;;951410;145;27744;-77
2022/08/26 03:00:02;;;;;;;4.75;4.35;;;22.60;65.20;;;;;;951130;146;27386;-77
2022/08/26 03:02:29;;;;;;;5.92;4.97;;;22.60;65.20;;;;;;951351;145;27364;-77
2022/08/26 03:04:55;;;;;;;5.12;4.72;;;22.60;65.20;;;;;;951136;145;27314;-77
2022/08/26 03:07:22;;;;;;;4.87;4.47;;;22.60;65.30;;;;;;951324;145;27288;-77
2022/08/26 03:09:48;;;;;;;5.92;4.45;;;22.70;65.30;;;;;;952820;145;27268;-77
2022/08/26 03:12:15;;;;;;;5.67;5.17;;;22.70;65.30;;;;;;950596;145;27321;-77
2022/08/26 03:14:42;;;;;;;5.42;5.03;;;22.70;65.20;;;;;;951845;145;27321;-77
2022/08/26 03:17:08;;;;;;;5.75;4.83;;;22.80;65.20;;;;;;948921;145;27418;-77
2022/08/26 03:19:35;;;;;;;5.03;4.55;;;22.80;65.10;;;;;;951716;145;27340;-77
2022/08/26 03:22:02;;;;;;;5.80;5.20;;;22.80;65.00;;;;;;950639;145;27331;-77
2022/08/26 03:24:28;;;;;;;4.47;4.17;;;22.80;65.00;;;;;;950038;145;27312;-77
2022/08/26 03:26:55;;;;;;;4.95;4.50;;;22.80;64.90;;;;;;950693;145;27329;-77
2022/08/26 03:32:06;;;;;;;4.67;4.28;;;22.80;64.60;;;;;;954356;146;27390;-77
2022/08/26 03:34:32;;;;;;;4.97;4.50;;;22.80;65.20;;;;;;955716;149;27381;-76
2022/08/26 03:36:59;;;;;;;5.03;4.62;;;22.80;64.50;;;;;;952732;148;27285;-77
2022/08/26 03:39:26;;;;;;;5.83;4.53;;;22.80;64.60;;;;;;953340;149;27248;-77
2022/08/26 03:41:53;;;;;;;5.45;4.40;;;22.80;64.60;;;;;;956697;149;27818;-77
2022/08/26 03:44:19;;;;;;;5.00;4.47;;;22.80;64.60;;;;;;954932;149;27343;-77
2022/08/26 03:46:45;;;;;;;5.08;4.62;;;22.80;64.60;;;;;;956193;148;27294;-77
2022/08/26 03:49:12;;;;;;;4.83;4.42;;;22.70;64.60;;;;;;955829;148;27328;-77
2022/08/26 03:51:39;;;;;;;4.65;4.25;;;22.70;64.70;;;;;;956445;149;27637;-77
2022/08/26 03:54:05;;;;;;;4.87;4.37;;;22.70;64.70;;;;;;955104;149;27278;-77
2022/08/26 03:56:32;;;;;;;4.58;4.28;;;22.70;64.80;;;;;;956800;148;27344;-77
2022/08/26 03:59:01;;;;;;;4.87;4.47;;;22.60;64.90;;;;;;955307;149;27968;-77
2022/08/26 04:01:28;;;;;;;5.05;4.33;;;22.60;64.90;;;;;;956357;146;27398;-77
2022/08/26 04:03:57;;;;;;;4.72;4.33;;;22.60;65.10;;;;;;956238;149;27280;-77
2022/08/26 04:06:24;;;;;;;5.72;4.92;;;22.60;65.30;;;;;;954774;148;27808;-77
2022/08/26 04:08:50;;;;;;;5.47;4.92;;;22.60;65.30;;;;;;954369;148;27432;-77
2022/08/26 04:11:20;;;;;;;5.35;4.87;;;22.60;65.50;;;;;;953545;149;27282;-77
2022/08/26 04:13:46;;;;;;;5.00;4.60;;;22.50;65.50;;;;;;953431;149;27389;-77
2022/08/26 04:16:13;;;;;;;5.55;4.80;;;22.50;65.80;;;;;;955566;149;27248;-77
2022/08/26 04:18:39;;;;;;;5.90;4.95;;;22.50;66.00;;;;;;956814;149;27424;-77
2022/08/26 04:21:06;;;;;;;5.58;5.08;;;22.50;66.30;;;;;;956145;149;27391;-77
2022/08/26 04:23:32;;;;;;;5.12;4.70;;;22.50;66.40;;;;;;954925;148;27248;-77
2022/08/26 04:26:00;;;;;;;5.20;4.70;;;22.40;66.50;;;;;;954584;148;27233;-77
2022/08/26 04:28:26;;;;;;;5.17;4.67;;;22.50;66.60;;;;;;955032;149;27311;-77
2022/08/26 04:30:52;;;;;;;5.62;5.10;;;22.40;66.60;;;;;;962295;144;27511;-77
2022/08/26 04:33:20;;;;;;;5.60;4.28;;;22.40;66.70;;;;;;970770;144;27400;-77
2022/08/26 04:35:45;;;;;;;4.78;4.37;;;22.40;66.90;;;;;;969163;144;27297;-77
2022/08/26 04:38:12;;;;;;;6.00;5.40;;;22.40;67.10;;;;;;970456;144;27313;-77
2022/08/26 04:40:44;;;;;;;5.53;5.03;;;22.40;67.20;;;;;;969447;144;27698;-77
2022/08/26 04:43:11;;;;;;;5.87;5.22;;;22.40;67.20;;;;;;971777;144;27348;-77
2022/08/26 04:45:37;;;;;;;5.40;4.90;;;22.40;67.30;;;;;;968347;144;27309;-77
2022/08/26 04:48:04;;;;;;;5.70;4.55;;;22.50;67.40;;;;;;970463;144;27341;-77
2022/08/26 04:50:31;;;;;;;5.70;4.97;;;22.50;67.70;;;;;;970027;144;27914;-77
2022/08/26 04:52:57;;;;;;;5.05;4.65;;;22.60;67.70;;;;;;968784;144;27305;-77
2022/08/26 04:55:24;;;;;;;5.28;4.78;;;22.60;67.80;;;;;;968607;144;27396;-77
2022/08/26 04:57:50;;;;;;;5.55;5.10;;;22.70;67.70;;;;;;970510;144;27882;-77
2022/08/26 05:00:17;;;;;;;6.70;4.55;;;22.70;67.70;;;;;;966789;144;27291;-77
2022/08/26 05:02:44;;;;;;;5.58;5.08;;;22.80;67.80;;;;;;970060;144;27397;-77
2022/08/26 05:05:10;;;;;;;5.60;5.03;;;22.90;67.90;;;;;;969832;144;27221;-77
2022/08/26 05:07:37;;;;;;;5.35;4.85;;;23.00;67.90;;;;;;970917;144;27307;-77
2022/08/26 05:10:03;;;;;;;6.03;5.12;;;23.10;67.80;;;;;;970436;144;27419;-77
2022/08/26 05:12:30;;;;;;;7.40;5.55;;;23.20;67.80;;;;;;968383;144;27331;-77
2022/08/26 05:14:56;;;;;;;5.62;5.12;;;23.30;67.70;;;;;;971109;144;27336;-77
2022/08/26 05:17:23;;;;;;;5.30;4.90;;;23.50;67.70;;;;;;970356;144;27372;-77
2022/08/26 05:19:50;;;;;;;5.10;4.67;;;23.60;67.50;;;;;;969561;144;27323;-77
2022/08/26 05:22:16;;;;;;;5.10;4.70;;;23.70;67.10;;;;;;972116;144;27314;-77
2022/08/26 05:24:45;;;;;;;5.55;5.03;;;23.80;66.80;;;;;;969568;144;27328;-77
2022/08/26 05:27:09;;;;;;;5.03;4.62;;;24.00;66.50;;;;;;969505;144;27272;-77
2022/08/26 05:29:36;;;;;;;5.05;4.65;;;24.10;66.20;;;;;;969967;144;27822;-77
2022/08/26 05:32:02;;;;;;;5.00;4.58;;;24.10;65.90;;;;;;969360;144;27334;-77
2022/08/26 05:34:29;;;;;;;7.17;5.12;;;24.20;65.80;;;;;;968710;144;27331;-77
2022/08/26 05:36:56;;;;;;;6.08;5.22;;;24.30;65.70;;;;;;968306;144;27335;-77
2022/08/26 05:39:23;;;;;;;5.05;4.65;;;24.40;65.50;;;;;;968989;144;27385;-77
2022/08/26 05:41:49;;;;;;;5.30;4.80;;;24.50;65.40;;;;;;970513;144;27335;-76
2022/08/26 05:44:17;;;;;;;5.12;4.67;;;24.60;65.30;;;;;;971864;144;28168;-77
2022/08/26 05:46:43;;;;;;;5.12;4.72;;;24.70;65.30;;;;;;969694;144;27344;-77
2022/08/26 05:49:09;;;;;;;5.67;5.17;;;24.90;65.20;;;;;;971102;144;27330;-77
2022/08/26 05:51:35;;;;;;;5.25;4.75;;;25.00;65.40;;;;;;971428;144;28251;-77
2022/08/26 05:54:02;;;;;;;4.90;4.50;;;25.20;65.70;;;;;;970298;144;27398;-77
2022/08/26 05:56:28;;;;;;;8.38;5.22;;;25.40;65.50;;;;;;969710;144;27310;-77
2022/08/26 05:58:55;;;;;;;6.42;5.17;;;25.60;65.10;;;;;;968819;144;27251;-78
2022/08/26 06:01:22;;;;;;;6.28;4.80;;;25.90;64.60;;;;;;970660;144;27412;-77
2022/08/26 06:03:48;;;;;;;6.40;5.10;;;26.00;64.00;;;;;;968164;144;27707;-78
2022/08/26 06:06:17;;;;;;;6.83;4.87;;;26.10;63.50;;;;;;971042;144;27835;-78
2022/08/26 06:08:44;;;;;;;5.00;4.50;;;26.30;63.30;;;;;;969061;144;27331;-78
2022/08/26 06:11:10;;;;;;;5.33;4.83;;;26.40;63.10;;;;;;972390;144;27298;-78
2022/08/26 06:13:37;;;;;;;5.40;4.90;;;26.50;63.00;;;;;;969170;144;27378;-78
2022/08/26 06:16:06;;;;;;;5.45;4.85;;;26.50;62.80;;;;;;972341;144;27379;-78
2022/08/26 06:18:34;;;;;;;5.17;4.72;;;26.60;62.50;;;;;;969041;144;27258;-78
2022/08/26 06:20:59;;;;;;;6.00;5.10;;;26.80;62.30;;;;;;968587;144;27734;-78
2022/08/26 06:26:11;;;;;;;4.95;4.55;;;27.00;61.90;;;;;;971476;144;27355;-78
2022/08/26 06:28:38;;;;;;;6.05;4.60;;;27.20;61.50;;;;;;969036;144;27747;-78
2022/08/26 06:31:04;;;;;;;6.12;5.10;;;27.40;61.20;;;;;;970161;144;27346;-78
2022/08/26 06:33:31;;;;;;;5.05;4.65;;;27.60;61.00;;;;;;972968;144;27424;-78
2022/08/26 06:35:57;;;;;;;5.75;5.25;;;27.80;60.50;;;;;;970324;144;27310;-78
2022/08/26 06:38:24;;;;;;;5.20;4.80;;;27.90;60.00;;;;;;971881;144;27320;-78
2022/08/26 06:40:51;;;;;;;5.87;5.12;;;28.20;60.00;;;;;;971046;144;27522;-78
2022/08/26 06:43:17;;;;;;;5.10;4.70;;;28.40;60.00;;;;;;970309;144;27334;-78
2022/08/26 06:45:44;;;;;;;5.62;4.95;;;28.70;59.80;;;;;;970853;144;27308;-78
2022/08/26 06:48:10;;;;;;;5.15;4.65;;;29.00;59.40;;;;;;970989;144;27315;-78
2022/08/26 06:50:37;;;;;;;4.75;4.35;;;29.30;58.70;;;;;;969302;144;27279;-78
2022/08/26 06:53:03;;;;;;;5.47;4.37;;;29.60;58.00;;;;;;970675;144;27411;-78
2022/08/26 06:55:30;;;;;;;5.12;4.72;;;29.70;57.30;;;;;;970206;144;27316;-78
2022/08/26 06:57:57;;;;;;;5.95;4.33;;;29.90;56.90;;;;;;969475;144;27310;-78
2022/08/26 07:00:23;;;;;;;5.30;4.90;;;30.00;56.70;;;;;;970260;144;27373;-78
2022/08/26 07:02:50;;;;;;;5.08;4.55;;;30.20;56.70;;;;;;971728;144;27356;-78
2022/08/26 07:05:16;;;;;;;6.75;4.60;;;30.50;56.80;;;;;;971308;144;27278;-78
2022/08/26 07:07:43;;;;;;;7.40;5.10;;;30.80;56.60;;;;;;969332;144;27413;-78
2022/08/26 07:10:10;;;;;;;4.90;4.37;;;31.20;56.50;;;;;;970213;144;27341;-78
2022/08/26 07:12:37;;;;;;;5.15;4.62;;;31.70;56.00;;;;;;967571;144;27336;-78
2022/08/26 07:15:03;;;;;;;5.95;4.60;;;32.10;55.20;;;;;;972290;144;27280;-76
2022/08/26 07:17:29;;;;;;;4.70;4.30;;;32.50;54.60;;;;;;970424;144;27311;-77
2022/08/26 07:19:56;;;;;;;5.25;4.58;;;32.90;54.10;;;;;;971081;144;27338;-77
2022/08/26 07:22:23;;;;;;;6.85;4.40;;;33.30;53.80;;;;;;969376;144;27286;-77
2022/08/26 07:24:49;;;;;;;5.47;3.95;;;33.80;53.50;;;;;;970815;144;27355;-77
2022/08/26 07:27:16;;;;;;;4.60;4.22;;;34.40;53.00;;;;;;969098;144;26200;-78
2022/08/26 07:29:43;;;;;;;5.80;4.47;;;35.00;52.50;;;;;;969322;144;27368;-78
2022/08/26 07:32:09;;;;;;;6.90;4.08;;;35.60;51.90;;;;;;967704;144;26259;-77
2022/08/26 07:34:38;;;;;;;4.17;3.80;;;36.30;51.30;;;;;;949431;145;26350;-78
2022/08/26 07:37:05;;;;;;;4.60;3.98;;;37.00;50.50;;;;;;951148;145;26194;-78
2022/08/26 07:39:32;;;;;;;4.30;3.90;;;37.80;49.60;;;;;;950397;145;27392;-78
2022/08/26 07:41:58;;;;;;;4.85;3.85;;;38.50;48.60;;;;;;950213;145;26330;-78
2022/08/26 07:44:26;;;;;;;4.67;4.22;;;39.20;47.60;;;;;;952211;145;26333;-78
2022/08/26 07:46:52;;;;;;;4.95;4.10;;;39.80;46.60;;;;;;950387;146;26339;-78
2022/08/26 07:49:18;;;;;;;5.42;4.03;;;40.40;45.70;;;;;;950432;145;26290;-78
2022/08/26 07:51:45;;;;;;;7.10;3.90;;;41.00;44.60;;;;;;952910;145;26174;-78
2022/08/26 07:54:11;;;;;;;6.00;4.10;;;41.60;43.50;;;;;;951371;145;26197;-78
2022/08/26 07:56:38;;;;;;;4.60;4.20;;;42.00;42.70;;;;;;949571;145;26222;-78
2022/08/26 07:59:04;;;;;;;5.45;3.62;;;42.50;41.70;;;;;;951172;145;26895;-78
2022/08/26 08:01:31;;;;;;;7.62;3.87;;;42.90;41.10;;;;;;951397;145;26812;-78
2022/08/26 08:03:59;;;;;;;5.20;3.72;;;43.20;40.00;;;;;;951889;145;26210;-78
2022/08/26 08:06:24;;;;;;;4.37;3.87;;;43.40;39.10;;;;;;951548;145;26233;-78
2022/08/26 08:08:51;;;;;;;8.00;4.05;;;43.50;38.50;;;;;;951070;145;26213;-78
2022/08/26 08:11:19;;;;;;;4.20;3.83;;;43.60;38.30;;;;;;951065;145;26225;-78
2022/08/26 08:13:44;;;;;;;5.15;3.65;;;43.80;38.10;;;;;;950755;145;26245;-78
2022/08/26 08:16:11;;;;;;;4.30;3.65;;;44.10;37.60;;;;;;951510;145;26298;-78
2022/08/26 08:18:37;;;;;;;6.72;4.10;;;44.30;37.20;;;;;;951004;145;26177;-78
2022/08/26 08:21:04;;;;;;;5.87;4.10;;;44.60;36.60;;;;;;952882;145;26205;-79
2022/08/26 08:23:30;;;;;;;5.30;3.77;;;44.80;36.00;;;;;;951885;145;26240;-79
2022/08/26 08:26:03;;;;;;;5.10;3.87;;;44.90;35.50;;;;;;951703;145;26261;-79
2022/08/26 08:28:29;;;;;;;5.22;3.65;;;45.10;35.50;;;;;;950933;145;26783;-79
2022/08/26 08:30:56;;;;;;;4.92;3.95;;;45.30;35.30;;;;;;954191;145;26268;-79
2022/08/26 08:33:22;;;;;;;5.30;3.92;;;45.60;35.00;;;;;;953818;145;26698;-79
2022/08/26 08:35:49;;;;;;;5.60;3.20;;;45.80;34.60;;;;;;951476;145;26341;-79
2022/08/26 08:38:15;;;;;;;4.80;4.00;;;46.00;34.00;;;;;;952527;145;28065;-79
2022/08/26 08:40:42;;;;;;;4.12;3.50;;;46.20;33.40;;;;;;952098;145;26340;-79
2022/08/26 08:43:12;;;;;;;6.70;3.90;;;46.40;33.40;;;;;;950165;146;26310;-79
2022/08/26 08:45:38;;;;;;;5.70;4.00;;;46.50;33.00;;;;;;953385;145;26230;-79
2022/08/26 08:48:19;;;;;;;4.42;3.92;;;46.70;32.80;;;;;;946231;145;26342;-79
2022/08/26 08:50:46;;;;;;;4.50;3.33;;;46.90;32.50;;;;;;952791;146;26197;-79
2022/08/26 08:53:15;;;;;;;5.12;3.83;;;47.00;32.10;;;;;;951278;145;26171;-79
2022/08/26 08:56:15;;;;;;;6.08;3.52;;;47.10;31.70;;;;;;950743;145;26213;-80
2022/08/26 08:59:03;;;;;;;6.20;3.42;;;47.20;31.50;;;;;;953058;145;26246;-79
2022/08/26 09:01:35;;;;;;;5.25;3.75;;;47.40;31.20;;;;;;951785;145;26233;-80
2022/08/26 09:04:11;;;;;;;3.77;3.27;;;47.40;30.90;;;;;;949111;145;27346;-80
2022/08/26 09:06:37;;;;;;;5.08;3.40;;;47.40;30.60;;;;;;953289;145;26870;-80
2022/08/26 09:09:04;;;;;;;8.83;4.10;;;47.40;30.50;;;;;;951862;145;27063;-80
2022/08/26 09:11:31;;;;;;;5.60;3.90;;;47.40;30.40;;;;;;950189;145;26225;-79
2022/08/26 09:13:57;;;;;;;6.80;3.60;;;47.50;30.00;;;;;;950132;145;26276;-80
2022/08/26 09:16:26;;;;;;;6.83;4.22;;;47.60;30.00;;;;;;951194;145;26237;-80
2022/08/26 09:19:09;;;;;;;6.90;3.77;;;47.70;29.70;;;;;;949485;146;26209;-80
2022/08/26 09:21:34;;;;;;;4.00;3.58;;;47.70;29.70;;;;;;952632;145;26173;-79
2022/08/26 09:24:01;;;;;;;5.22;3.65;;;47.80;29.70;;;;;;950393;146;26249;-80
2022/08/26 09:26:40;;;;;;;6.15;3.58;;;47.90;29.60;;;;;;950517;146;26350;-79
2022/08/26 09:29:21;;;;;;;5.75;3.90;;;48.00;29.40;;;;;;951512;145;26167;-80
2022/08/26 09:31:47;;;;;;;3.80;3.25;;;48.10;29.30;;;;;;952202;145;26212;-80
2022/08/26 09:34:26;;;;;;;4.90;3.40;;;48.20;29.20;;;;;;952319;145;26237;-80
2022/08/26 09:36:53;;;;;;;5.85;3.52;;;48.20;29.00;;;;;;953449;145;26226;-80
2022/08/26 09:39:28;;;;;;;4.60;3.52;;;48.20;28.80;;;;;;951217;145;26248;-80
2022/08/26 09:42:09;;;;;;;7.87;3.47;;;48.20;28.60;;;;;;949603;146;26317;-80
2022/08/26 09:44:39;;;;;;;3.80;3.50;;;48.10;28.40;;;;;;951386;145;26204;-80
2022/08/26 09:47:05;;;;;;;3.70;3.40;;;48.00;28.50;;;;;;933788;145;26189;-80
2022/08/26 09:49:32;;;;;;;3.67;3.25;;;47.90;28.40;;;;;;950628;145;26328;-79
2022/08/26 09:52:16;;;;;;;3.58;3.25;;;47.70;28.30;;;;;;948312;145;26305;-80
2022/08/26 09:54:43;;;;;;;4.37;3.62;;;47.60;28.30;;;;;;950591;145;26254;-80
2022/08/26 09:57:15;;;;;;;3.95;3.55;;;47.30;28.30;;;;;;951811;146;26190;-80
2022/08/26 09:59:42;;;;;;;4.53;3.70;;;47.00;28.30;;;;;;951847;145;26253;-79
2022/08/26 10:02:23;;;;;;;5.30;4.05;;;46.60;28.30;;;;;;949021;145;26314;-80
2022/08/26 10:04:55;;;;;;;4.45;3.70;;;46.30;28.40;;;;;;949264;145;26300;-80
2022/08/26 10:07:34;;;;;;;6.58;3.58;;;45.80;28.50;;;;;;948272;145;26288;-80
2022/08/26 10:10:02;;;;;;;4.80;3.95;;;45.30;28.70;;;;;;952521;146;26253;-80
2022/08/26 10:12:27;;;;;;;5.62;3.40;;;44.80;28.90;;;;;;950267;145;26213;-80
2022/08/26 10:14:54;;;;;;;4.78;4.35;;;44.40;29.00;;;;;;949549;145;26222;-79
2022/08/26 10:17:32;;;;;;;4.40;3.98;;;44.20;29.30;;;;;;951806;145;26325;-80
2022/08/26 10:20:05;;;;;;;6.30;4.08;;;43.80;29.30;;;;;;950955;145;26290;-80
2022/08/26 10:22:52;;;;;;;5.35;4.05;;;43.50;29.50;;;;;;952196;145;26752;-79
2022/08/26 10:25:21;;;;;;;5.60;3.90;;;43.30;29.60;;;;;;952455;145;28490;-80
2022/08/26 10:27:48;;;;;;;8.10;3.95;;;43.00;29.60;;;;;;913000;145;26189;-79
2022/08/26 10:30:17;;;;;;;4.00;3.67;;;42.70;29.60;;;;;;949824;145;26339;-80
2022/08/26 10:32:47;;;;;;;4.17;3.87;;;42.40;29.80;;;;;;951870;145;26230;-80
2022/08/26 10:35:13;;;;;;;3.83;3.52;;;42.20;29.90;;;;;;954089;146;26338;-80
2022/08/26 10:37:42;;;;;;;3.90;3.60;;;41.90;30.10;;;;;;955714;149;27304;-80
2022/08/26 10:40:27;;;;;;;4.90;4.12;;;41.60;30.40;;;;;;954848;149;26275;-80
2022/08/26 10:43:06;;;;;;;4.00;3.65;;;41.40;30.70;;;;;;955262;148;27848;-79
2022/08/26 10:45:34;;;;;;;4.40;4.03;;;41.20;30.80;;;;;;957318;149;27311;-80
2022/08/26 10:47:59;;;;;;;6.70;3.95;;;41.10;31.00;;;;;;953660;149;26188;-80
2022/08/26 10:50:25;;;;;;;4.45;4.05;;;41.00;30.90;;;;;;954756;148;26213;-80
2022/08/26 10:53:01;;;;;;;5.20;4.00;;;40.90;31.00;;;;;;955703;149;26236;-80
2022/08/26 10:55:36;;;;;;;3.92;3.62;;;40.70;31.20;;;;;;956306;149;26763;-80
2022/08/26 10:58:21;;;;;;;5.00;4.28;;;40.70;31.40;;;;;;951384;149;26235;-79
2022/08/26 11:03:38;;;;;;;4.37;3.77;;;40.60;31.30;;;;;;955728;149;26221;-80
2022/08/26 11:06:20;;;;;;;4.08;3.67;;;40.40;31.00;;;;;;955432;149;26255;-79
2022/08/26 11:08:48;;;;;;;4.65;3.67;;;40.20;31.10;;;;;;946549;149;26348;-80
2022/08/26 11:11:40;;;;;;;4.30;3.90;;;40.10;31.40;;;;;;956442;149;26203;-79
2022/08/26 11:14:21;;;;;;;5.03;4.17;;;39.80;31.50;;;;;;955356;149;27443;-79
2022/08/26 11:16:48;;;;;;;4.87;3.90;;;39.60;31.50;;;;;;955805;149;26255;-80
2022/08/26 11:19:29;;;;;;;4.53;3.77;;;39.40;31.70;;;;;;953170;148;27686;-80
2022/08/26 11:22:04;;;;;;;5.35;3.60;;;39.30;32.10;;;;;;949083;149;26205;-79
2022/08/26 11:24:53;;;;;;;5.50;3.90;;;39.20;32.40;;;;;;953909;149;26321;-80
2022/08/26 11:27:25;;;;;;;6.25;3.87;;;39.10;32.60;;;;;;955507;149;26224;-80
2022/08/26 11:29:55;;;;;;;4.83;3.98;;;39.10;32.50;;;;;;956570;149;26194;-79
2022/08/26 11:32:33;;;;;;;4.90;4.37;;;39.00;32.50;;;;;;954791;149;26280;-80
2022/08/26 11:35:00;;;;;;;4.87;4.17;;;39.00;32.50;;;;;;954797;146;26364;-79
2022/08/26 11:37:26;;;;;;;5.03;4.00;;;39.00;32.60;;;;;;952836;149;26309;-80
2022/08/26 11:39:53;;;;;;;4.40;3.50;;;39.00;32.60;;;;;;952548;148;26277;-79
2022/08/26 11:42:29;;;;;;;8.23;3.95;;;39.10;32.70;;;;;;956391;149;26177;-79
2022/08/26 11:44:55;;;;;;;5.17;4.08;;;39.10;32.60;;;;;;955584;149;26344;-79
2022/08/26 11:47:25;;;;;;;5.37;3.62;;;39.00;32.40;;;;;;953778;149;26253;-79
2022/08/26 11:49:51;;;;;;;4.33;3.62;;;39.00;32.40;;;;;;954701;149;26302;-79
2022/08/26 11:52:18;;;;;;;5.50;3.52;;;38.90;32.50;;;;;;952100;149;26309;-79
2022/08/26 11:55:00;;;;;;;4.58;3.58;;;38.90;32.50;;;;;;954537;149;26197;-80
2022/08/26 11:57:26;;;;;;;4.50;4.10;;;38.80;32.50;;;;;;956015;149;26206;-79
2022/08/26 11:59:52;;;;;;;4.22;3.85;;;38.80;32.70;;;;;;956375;149;26240;-79
2022/08/26 12:02:19;;;;;;;4.45;4.00;;;38.80;32.90;;;;;;955012;149;26322;-78
2022/08/26 12:04:46;;;;;;;4.97;4.25;;;38.70;33.00;;;;;;956171;146;26278;-78
2022/08/26 12:07:12;;;;;;;5.10;4.17;;;38.60;33.10;;;;;;954958;148;26185;-79
2022/08/26 12:09:39;;;;;;;4.78;3.70;;;38.50;33.20;;;;;;952559;149;27256;-79
2022/08/26 12:12:17;;;;;;;4.83;4.15;;;38.30;33.20;;;;;;954642;149;26253;-79
2022/08/26 12:14:44;;;;;;;3.55;3.33;;;38.20;33.40;;;;;;953508;149;26190;-79
2022/08/26 12:17:16;;;;;;;6.62;3.70;;;38.00;33.50;;;;;;955733;148;27283;-79
2022/08/26 12:22:26;;;;;;;4.53;4.12;;;37.80;33.60;;;;;;973433;145;39039;-75
2022/08/26 12:24:55;;;;;;;6.40;3.87;;;37.30;34.10;;;;;;952062;149;27442;-75
2022/08/26 12:27:24;;;;;;;4.60;4.20;;;37.10;34.20;;;;;;951353;149;27319;-75
2022/08/26 12:30:01;;;;;;;7.30;4.37;;;36.90;34.50;;;;;;952214;146;28715;-75
2022/08/26 12:32:26;;;;;;;8.83;4.47;;;36.70;34.80;;;;;;950723;149;27322;-75
2022/08/26 12:34:53;;;;;;;8.10;4.60;;;36.50;35.00;;;;;;953730;147;27291;-75
2022/08/26 12:37:20;;;;;;;5.70;4.67;;;36.30;35.10;;;;;;953132;149;27281;-75
2022/08/26 12:39:49;;;;;;;5.45;4.58;;;36.10;35.50;;;;;;951995;149;27433;-75
2022/08/26 12:42:18;;;;;;;4.90;4.50;;;35.90;35.60;;;;;;946212;150;27325;-74
2022/08/26 12:45:03;;;;;;;11.73;5.40;;;35.80;36.00;;;;;;945382;150;27373;-75
2022/08/26 12:47:32;;;;;;;6.03;4.70;;;35.60;37.20;;;;;;946218;151;27446;-74
2022/08/26 12:49:59;;;;;;;9.63;6.67;;;35.40;41.50;;;;;;941588;151;27348;-74
2022/08/26 12:52:31;;;;;;;10.78;5.10;;;34.90;43.10;;;;;;942060;151;27332;-75
2022/08/26 12:54:58;;;;;;;6.50;4.85;;;34.20;44.20;;;;;;945379;148;27340;-75
2022/08/26 12:57:28;;;;;;;4.97;4.58;;;33.30;45.40;;;;;;945336;148;27810;-74
2022/08/26 12:59:54;;;;;;;5.10;4.55;;;32.30;47.50;;;;;;943946;150;27421;-74
2022/08/26 13:02:36;;;;;;;5.80;5.30;;;31.30;49.90;;;;;;941661;151;27497;-74